Aérodrome :
LOGIN :

S'inscrire | Disclaimer

   EN    FR    IT 

 










Légende :    VFR   VFR Marginal   IFR   IFR Intensif   IFR Très Intensif
Visi : 
Plafond : 
>= 8 km
>= 3000ft
5 à 8 km
1000 à 3000 ft
1500m à 5 km
500 à 1000 ft
800 à 1500m
200 à 500 ft
< 800m
< 200 ft
Symboles :   Orages  Brouillard  Fortes neiges  Fortes précipitations  Vent > 20 kt
SIGMETs :   Divers  Orages  Givrage  Turbulence  Onde Orograph.  Cendres Volcan.







- Altitude de l'aérodrome : 147 ft
- Code IATA : DUS


EDDL - Düsseldorf Int.

DERNIER METAR :
  • 150250Z 11005KT 9999 OVC034 01/M06 Q1026 NOSIG

METARs EXPIRÉS :
  • 150220Z 11005KT 9999 FEW029 BKN034 01/M05 Q1026 NOSIG
  • 150150Z 11005KT 9999 SCT037 BKN040 01/M06 Q1026 NOSIG
  • 150120Z 10005KT 070V130 9999 SCT037 BKN040 01/M05 Q1026 NOSIG
  • 150050Z 12006KT 090V150 9999 OVC038 01/M06 Q1026 NOSIG
  • 150020Z 12007KT 9999 OVC039 01/M06 Q1025 NOSIG

TAF TAF EDDL
Valide du 15 à 00h jusqu'au 16 à 06h UTC


142300Z 1500/1606 10005KT 9999 BKN030
TEMPO 1500/1506 VRB03KT
BECMG 1509/1512 14010KT
BECMG 1518/1521 14015G25KT
TEMPO 1602/1606 1500 SN BKN005
PROB30
TEMPO 1602/1604 -FZRA
Pas de NOTAMs connus pour ce terrain.



MET'MAP, la Météo Aéronautique d'un coup d'oeil ! - Copyright ORBIFLY Décembre 2007 - Disclaimer

ORBIFLY MET'MAP TEAM :

Programmation & Développement : Alexandra Zaïnal
Conception & Développement : Baudouin d'Aumeries
Co-Programmation & Développement : Marc-Olivier Méhu
Soutien technique & logistique : Manuel Goepfert

Contact : metmap@orbifly.com




SOURCES & CREDITS :

   NOAA